Duluth, GA (30097)

12:41 PM EST on February 12, 2016 (GMT -0500)
Walden Corners | | Change Station
CLOSE
Current Station
Personal Weather Station
Location: Suwanee, GA
Elevation: 1066 ft
Nearby Weather Stations

Elev 1066 ft 34.02 °N, 84.09 °W | Updated 12 seconds ago

Clear
Clear
52.5 °F
Feels Like 52.5 °F
N
1.1
Wind Variable Wind from SW
Gusts 2.5 mph

Today
High -- | Low -- °F
--% Chance of Precip.
Yesterday
High -- | Low -- °F
Precip. -- in
Pressure 30.14 in
Visibility 10.0 miles
Clouds Clear
Dew Point 21 °F
Humidity 29%
Rainfall 0.00 in
Snow Depth Not available.
7:24 AM 6:17 PM
Waxing Crescent, 22% visible
METAR KPDK 121653Z 00000KT 10SM CLR 10/M03 A3011 RMK AO2 SLP204 T01001028
Pressure 30.14 in
Visibility 10.0 miles
Clouds Clear
Dew Point 21 °F
Humidity 29%
Rainfall 0.00 in
Snow Depth Not available.
7:24 AM 6:17 PM
Waxing Crescent, 22% visible
METAR KPDK 121653Z 00000KT 10SM CLR 10/M03 A3011 RMK AO2 SLP204 T01001028

10-Day Weather Forecast

Almanac

Astronomy

Feb. 12, 2016 Rise Set
Actual Time
Civil Twilight
Nautical Twilight
Astronomical Twilight
Moon
Length of Visible Light
Length of Day
Tomorrow will be .
, % of the Moon is Illuminated

Today's Extremes

State Highs State Lows

Community

WunderPhotos

Upload Photos

1,892,354 photos uploaded!

WunderBlog® & News

Nearby

Air Quality

  Air Quality AQ Index Pollutant
Not available.

Snow Depth

Station Depth Elevation

Earthquake Activity

City Distance Mag. Time & Date
Minimum magnitude displayed is 2.5.

Coastal Water Temperatures

Place Temperature

Stations

Nearby Weather Stations

Station Location Temp. Windchill Dew Point Humidity Wind Precip. Elev Updated Type
                   

Watches & Warnings

There are currently no watches in effect.